createdAt,value
2019-04-26T00:02:18.529Z,957.65
2019-04-26T00:04:43.888Z,957.71
2019-04-26T00:07:10.465Z,957.69
2019-04-26T00:09:36.551Z,957.71
2019-04-26T00:12:02.855Z,957.63
2019-04-26T00:14:29.198Z,957.61
2019-04-26T00:16:55.532Z,957.65
2019-04-26T00:19:22.277Z,957.63
2019-04-26T00:21:48.193Z,957.59
2019-04-26T00:24:15.259Z,957.61
2019-04-26T00:26:40.831Z,957.61
2019-04-26T00:29:07.174Z,957.61
2019-04-26T00:31:33.509Z,957.53
2019-04-26T00:33:59.808Z,957.53
2019-04-26T00:36:26.150Z,957.50
2019-04-26T00:38:52.457Z,957.50
2019-04-26T00:41:18.794Z,957.54
2019-04-26T00:43:45.106Z,957.49
2019-04-26T00:46:13.255Z,957.51
2019-04-26T00:48:37.750Z,957.50
2019-04-26T00:51:04.091Z,957.44
2019-04-26T00:53:30.429Z,957.48
2019-04-26T00:55:56.762Z,957.52
2019-04-26T00:58:24.401Z,957.49
2019-04-26T01:00:49.503Z,957.51
2019-04-26T01:03:16.639Z,957.51
2019-04-26T01:05:42.171Z,957.51
2019-04-26T01:08:08.504Z,957.47
2019-04-26T01:10:34.895Z,957.53
2019-04-26T01:13:01.213Z,957.46
2019-04-26T01:15:27.558Z,957.48
2019-04-26T01:17:53.906Z,957.53
2019-04-26T01:20:20.396Z,957.45
2019-04-26T01:22:46.556Z,957.43
2019-04-26T01:25:12.949Z,957.40
2019-04-26T01:27:39.264Z,957.43
2019-04-26T01:30:05.703Z,957.44
2019-04-26T01:32:32.032Z,957.38
2019-04-26T01:37:42.619Z,957.32
2019-04-26T01:40:08.939Z,957.36
2019-04-26T01:42:35.374Z,957.32
2019-04-26T01:45:01.702Z,957.39
2019-04-26T01:47:28.417Z,957.28
2019-04-26T01:49:54.345Z,957.31
2019-04-26T01:52:22.367Z,957.29
2019-04-26T01:54:46.980Z,957.25
2019-04-26T01:57:13.314Z,957.24
2019-04-26T01:59:39.639Z,957.24
2019-04-26T02:02:05.958Z,957.23
2019-04-26T02:04:32.279Z,957.22
2019-04-26T02:06:58.614Z,957.18
2019-04-26T02:09:24.929Z,957.25
2019-04-26T02:11:51.259Z,957.31
2019-04-26T02:14:17.616Z,957.38
2019-04-26T02:16:43.925Z,957.35
2019-04-26T02:19:10.263Z,957.27
2019-04-26T02:21:36.575Z,957.19
2019-04-26T02:24:02.904Z,957.25
2019-04-26T02:26:30.359Z,957.18
2019-04-26T02:28:55.554Z,957.17
2019-04-26T02:31:21.892Z,957.15
2019-04-26T02:33:48.205Z,957.08
2019-04-26T02:36:14.539Z,957.14
2019-04-26T02:38:40.855Z,957.17
2019-04-26T02:41:07.203Z,957.14
2019-04-26T02:43:35.174Z,957.10
2019-04-26T02:45:59.872Z,957.09
2019-04-26T02:48:28.316Z,957.09
2019-04-26T02:50:52.467Z,957.11
2019-04-26T02:53:18.816Z,957.12
2019-04-26T02:55:45.115Z,957.10
2019-04-26T02:58:11.463Z,957.11
2019-04-26T03:00:39.107Z,957.12
2019-04-26T03:03:04.096Z,957.07
2019-04-26T03:05:31.759Z,957.09
2019-04-26T03:07:56.780Z,957.14
2019-04-26T03:10:23.073Z,957.17
2019-04-26T03:12:49.399Z,957.15
2019-04-26T03:15:15.736Z,957.21
2019-04-26T03:17:43.037Z,957.28
2019-04-26T03:20:08.388Z,957.35
2019-04-26T03:22:35.667Z,957.34
2019-04-26T03:25:01.070Z,957.35
2019-04-26T03:27:27.374Z,957.36
2019-04-26T03:30:05.011Z,957.35
2019-04-26T03:32:20.054Z,957.36
2019-04-26T03:34:52.967Z,957.41
2019-04-26T03:37:20.648Z,957.42
2019-04-26T03:39:40.834Z,957.41
2019-04-26T03:42:05.410Z,957.46
2019-04-26T03:44:33.054Z,957.41
2019-04-26T03:46:58.073Z,957.49
2019-04-26T03:49:24.385Z,957.53
2019-04-26T03:51:50.764Z,957.58
2019-04-26T03:54:17.080Z,957.58
2019-04-26T03:56:44.091Z,957.59
2019-04-26T03:59:09.715Z,957.59
2019-04-26T04:01:37.279Z,957.59
2019-04-26T04:04:02.425Z,957.62
2019-04-26T04:06:28.774Z,957.62
2019-04-26T04:08:55.062Z,957.63
2019-04-26T04:11:21.399Z,957.67
2019-04-26T04:13:50.908Z,957.69
2019-04-26T04:16:14.032Z,957.65
2019-04-26T04:18:41.766Z,957.69
2019-04-26T04:21:06.675Z,957.65
2019-04-26T04:23:32.996Z,957.63
2019-04-26T04:25:59.350Z,957.70
2019-04-26T04:28:25.696Z,957.69
2019-04-26T04:30:52.009Z,957.69
2019-04-26T04:33:18.351Z,957.77
2019-04-26T04:35:46.066Z,957.71
2019-04-26T04:38:11.011Z,957.74
2019-04-26T04:40:37.322Z,957.69
2019-04-26T04:43:03.743Z,957.76
2019-04-26T04:45:29.954Z,957.75
2019-04-26T04:47:56.271Z,957.80
2019-04-26T04:50:22.627Z,957.82
2019-04-26T04:52:50.085Z,957.78
2019-04-26T04:55:15.310Z,957.77
2019-04-26T04:57:41.943Z,957.80
2019-04-26T05:00:08.031Z,957.76
2019-04-26T05:02:34.397Z,957.75
2019-04-26T05:05:00.678Z,957.75
2019-04-26T05:07:27.012Z,957.75
2019-04-26T05:09:53.678Z,957.75
2019-04-26T05:12:19.648Z,957.78
2019-04-26T05:14:46.220Z,957.83
2019-04-26T05:17:12.311Z,957.85
2019-04-26T05:19:38.652Z,957.80
2019-04-26T05:22:04.960Z,957.85
2019-04-26T05:24:31.323Z,957.92
2019-04-26T05:26:57.650Z,957.91
2019-04-26T05:29:23.961Z,957.88
2019-04-26T05:31:51.526Z,957.87
2019-04-26T05:34:16.606Z,957.84
2019-04-26T05:36:42.920Z,957.88
2019-04-26T05:39:09.248Z,957.92
2019-04-26T05:41:35.644Z,957.93
2019-04-26T05:44:01.972Z,957.94
2019-04-26T05:46:28.304Z,957.96
2019-04-26T05:48:55.646Z,957.93
2019-04-26T05:51:21.017Z,957.95
2019-04-26T05:53:48.508Z,957.95
2019-04-26T05:56:13.999Z,958.00
2019-04-26T05:58:40.328Z,957.97
2019-04-26T06:01:06.657Z,957.96
2019-04-26T06:03:32.969Z,957.92
2019-04-26T06:05:59.288Z,957.93
2019-04-26T06:08:31.320Z,957.94
2019-04-26T06:10:53.057Z,957.98
2019-04-26T06:13:18.306Z,958.00
2019-04-26T06:15:44.614Z,957.94
2019-04-26T06:18:10.963Z,957.96
2019-04-26T06:20:37.274Z,957.98
2019-04-26T06:23:03.613Z,957.96
2019-04-26T06:25:29.945Z,957.89
2019-04-26T06:27:56.314Z,957.92
2019-04-26T06:30:22.604Z,957.93
2019-04-26T06:32:56.407Z,957.92
2019-04-26T06:35:15.248Z,957.94
2019-04-26T06:37:41.554Z,957.97
2019-04-26T06:40:07.889Z,957.92
2019-04-26T06:42:34.192Z,957.90
2019-04-26T06:45:00.503Z,957.90
2019-04-26T06:47:26.835Z,957.91
2019-04-26T06:49:53.136Z,957.87
2019-04-26T06:52:19.485Z,957.85
2019-04-26T06:54:45.813Z,957.88
2019-04-26T06:57:14.959Z,957.79
2019-04-26T06:59:38.470Z,957.76
2019-04-26T07:02:04.819Z,957.75
2019-04-26T07:04:31.171Z,957.74
2019-04-26T07:06:58.227Z,957.69
2019-04-26T07:09:23.799Z,957.72
2019-04-26T07:11:50.153Z,957.67
2019-04-26T07:14:16.481Z,957.67
2019-04-26T07:16:42.816Z,957.64
2019-04-26T07:19:09.127Z,957.60
2019-04-26T07:21:35.476Z,957.56
2019-04-26T07:24:02.874Z,957.59
2019-04-26T07:26:28.136Z,957.57
2019-04-26T07:28:54.484Z,957.62
2019-04-26T07:31:20.818Z,957.56
2019-04-26T07:33:47.153Z,957.48
2019-04-26T07:36:13.483Z,957.49
2019-04-26T07:38:39.991Z,957.47
2019-04-26T07:41:09.353Z,957.39
2019-04-26T07:43:35.768Z,957.38
2019-04-26T07:46:02.912Z,957.49
2019-04-26T07:48:28.494Z,957.43
2019-04-26T07:50:54.826Z,957.37
2019-04-26T07:53:21.138Z,957.34
2019-04-26T07:55:47.469Z,957.32
2019-04-26T07:58:13.802Z,957.34
2019-04-26T08:00:46.104Z,957.41
2019-04-26T08:03:13.028Z,957.41
2019-04-26T08:05:38.745Z,957.39
2019-04-26T08:08:05.856Z,957.38
2019-04-26T08:10:31.432Z,957.34
2019-04-26T08:12:57.731Z,957.18
2019-04-26T08:15:25.100Z,957.11
2019-04-26T08:17:50.454Z,957.05
2019-04-26T08:20:16.737Z,957.10
2019-04-26T08:22:43.068Z,957.08
2019-04-26T08:25:12.455Z,957.09
2019-04-26T08:27:38.080Z,957.08
2019-04-26T08:30:10.522Z,957.08
2019-04-26T08:32:32.162Z,957.05
2019-04-26T08:35:02.263Z,957.05
2019-04-26T08:37:26.789Z,957.06
2019-04-26T08:39:53.223Z,957.07
2019-04-26T08:42:23.832Z,957.04
2019-04-26T08:44:45.986Z,957.01
2019-04-26T08:47:16.744Z,956.97
2019-04-26T08:49:39.161Z,956.97
2019-04-26T08:52:13.948Z,956.94
2019-04-26T08:54:32.645Z,956.90
2019-04-26T08:56:57.641Z,956.87
2019-04-26T08:59:23.968Z,956.90
2019-04-26T09:01:50.290Z,956.83
2019-04-26T09:04:16.599Z,956.82
2019-04-26T09:06:42.934Z,956.73
2019-04-26T09:09:09.249Z,956.71
2019-04-26T09:11:35.582Z,956.69
2019-04-26T09:14:01.895Z,956.68
2019-04-26T09:16:28.221Z,956.68
2019-04-26T09:18:59.393Z,956.63
2019-04-26T09:21:20.841Z,956.53
2019-04-26T09:23:50.856Z,956.50
2019-04-26T09:26:13.697Z,956.44
2019-04-26T09:28:39.813Z,956.43
2019-04-26T09:31:06.283Z,956.35
2019-04-26T09:33:35.942Z,956.33
2019-04-26T09:35:59.041Z,956.30
2019-04-26T09:38:25.366Z,956.27
2019-04-26T09:40:52.647Z,956.22
2019-04-26T09:43:18.125Z,956.23
2019-04-26T09:45:44.507Z,956.16
2019-04-26T09:48:10.921Z,956.16
2019-04-26T09:50:37.223Z,956.08
2019-04-26T09:53:03.556Z,956.06
2019-04-26T09:55:35.541Z,955.97
2019-04-26T09:57:57.312Z,955.89
2019-04-26T10:00:23.268Z,955.89
2019-04-26T10:02:49.593Z,955.91
2019-04-26T10:05:17.662Z,955.81
2019-04-26T10:07:42.237Z,955.81
2019-04-26T10:10:08.560Z,955.83
2019-04-26T10:12:34.902Z,955.75
2019-04-26T10:15:01.218Z,955.66
2019-04-26T10:17:27.561Z,955.64
2019-04-26T10:19:53.905Z,955.65
2019-04-26T10:22:20.210Z,955.67
2019-04-26T10:24:46.546Z,955.61
2019-04-26T10:27:12.867Z,955.58
2019-04-26T10:29:39.190Z,955.57
2019-04-26T10:32:05.509Z,955.48
2019-04-26T10:34:31.831Z,955.43
2019-04-26T10:37:01.486Z,955.38
2019-04-26T10:39:24.453Z,955.36
2019-04-26T10:41:50.786Z,955.32
2019-04-26T10:44:17.082Z,955.29
2019-04-26T10:46:55.018Z,955.23
2019-04-26T10:49:12.053Z,955.22
2019-04-26T10:51:38.612Z,955.28
2019-04-26T10:54:05.914Z,955.17
2019-04-26T10:56:28.681Z,955.14
2019-04-26T10:58:55.000Z,955.15
2019-04-26T11:01:21.335Z,955.17
2019-04-26T11:03:47.680Z,955.07
2019-04-26T11:06:14.011Z,955.14
2019-04-26T11:08:40.310Z,955.04
2019-04-26T11:11:06.639Z,955.03
2019-04-26T11:13:32.939Z,955.03
2019-04-26T11:16:02.522Z,954.99
2019-04-26T11:18:27.441Z,954.96
2019-04-26T11:20:51.896Z,954.98
2019-04-26T11:23:18.224Z,954.92
2019-04-26T11:25:44.550Z,954.92
2019-04-26T11:28:10.872Z,954.91
2019-04-26T11:30:37.178Z,954.91
2019-04-26T11:33:03.519Z,954.97
2019-04-26T11:35:33.169Z,954.95
2019-04-26T11:37:56.982Z,954.97
2019-04-26T11:40:22.500Z,954.90
2019-04-26T11:42:48.777Z,954.91
2019-04-26T11:45:16.184Z,954.88
2019-04-26T11:47:54.569Z,954.87
2019-04-26T11:50:08.061Z,954.86
2019-04-26T11:52:36.038Z,954.91
2019-04-26T11:55:00.662Z,954.84
2019-04-26T11:57:26.981Z,954.73
2019-04-26T11:59:53.297Z,954.76
2019-04-26T12:02:19.636Z,954.67
2019-04-26T12:04:49.516Z,954.66
2019-04-26T12:07:12.261Z,954.61
2019-04-26T12:09:38.583Z,954.56
2019-04-26T12:12:05.406Z,954.56
2019-04-26T12:14:33.491Z,954.54
2019-04-26T12:16:59.590Z,954.45
2019-04-26T12:19:23.862Z,954.50
2019-04-26T12:21:50.200Z,954.46
2019-04-26T12:24:16.501Z,954.41
2019-04-26T12:26:46.172Z,954.33
2019-04-26T12:29:10.524Z,954.36
2019-04-26T12:31:35.488Z,954.32
2019-04-26T12:34:01.794Z,954.31
2019-04-26T12:36:28.095Z,954.22
2019-04-26T12:38:54.426Z,954.24
2019-04-26T12:41:30.042Z,954.12
2019-04-26T12:43:47.060Z,954.12
2019-04-26T12:46:14.319Z,954.09
2019-04-26T12:48:39.696Z,954.05
2019-04-26T12:51:08.222Z,953.97
2019-04-26T12:53:33.004Z,953.98
2019-04-26T12:55:58.658Z,953.95
2019-04-26T12:58:24.993Z,953.88
2019-04-26T13:00:54.303Z,953.94
2019-04-26T13:03:20.484Z,953.91
2019-04-26T13:05:43.979Z,953.86
2019-04-26T13:08:13.070Z,953.82
2019-04-26T13:10:36.942Z,953.81
2019-04-26T13:13:02.888Z,953.81
2019-04-26T13:15:29.209Z,953.79
2019-04-26T13:17:55.537Z,953.78
2019-04-26T13:20:24.264Z,953.72
2019-04-26T13:22:50.207Z,953.70
2019-04-26T13:25:17.420Z,953.71
2019-04-26T13:27:41.569Z,953.70
2019-04-26T13:30:10.615Z,953.69
2019-04-26T13:32:33.542Z,953.64
2019-04-26T13:34:59.850Z,953.57
2019-04-26T13:37:26.184Z,953.53
2019-04-26T13:39:55.300Z,953.55
2019-04-26T13:42:18.851Z,953.50
2019-04-26T13:44:45.153Z,953.52
2019-04-26T13:47:11.483Z,953.50
2019-04-26T13:49:37.789Z,953.50
2019-04-26T13:52:04.111Z,953.44
2019-04-26T13:54:30.434Z,953.43
2019-04-26T13:56:56.740Z,953.45
2019-04-26T13:59:23.096Z,953.46
2019-04-26T14:01:49.407Z,953.36
2019-04-26T14:04:15.771Z,953.38
2019-04-26T14:06:42.052Z,953.42
2019-04-26T14:09:08.377Z,953.35
2019-04-26T14:11:34.684Z,953.39
2019-04-26T14:14:01.843Z,953.33
2019-04-26T14:16:27.587Z,953.37
2019-04-26T14:18:53.674Z,953.32
2019-04-26T14:21:19.970Z,953.31
2019-04-26T14:23:49.477Z,953.32
2019-04-26T14:26:12.664Z,953.34
2019-04-26T14:28:41.809Z,953.35
2019-04-26T14:31:05.335Z,953.29
2019-04-26T14:33:32.284Z,953.31
2019-04-26T14:35:57.946Z,953.30
2019-04-26T14:38:28.115Z,953.36
2019-04-26T14:41:03.227Z,953.32
2019-04-26T14:43:18.247Z,953.30
2019-04-26T14:45:55.397Z,953.23
2019-04-26T14:48:20.093Z,953.24
2019-04-26T14:50:35.940Z,953.20
2019-04-26T14:53:03.446Z,953.23
2019-04-26T14:55:28.597Z,953.15
2019-04-26T14:57:54.935Z,953.15
2019-04-26T15:00:22.271Z,953.14
2019-04-26T15:02:48.494Z,953.16
2019-04-26T15:05:13.899Z,953.16
2019-04-26T15:07:49.415Z,953.09
2019-04-26T15:10:06.915Z,953.12
2019-04-26T15:12:45.676Z,953.11
2019-04-26T15:14:59.181Z,953.05
2019-04-26T15:17:26.605Z,953.06
2019-04-26T15:19:51.818Z,953.03
2019-04-26T15:22:18.143Z,953.08
2019-04-26T15:24:44.443Z,953.00
2019-04-26T15:27:10.792Z,953.11
2019-04-26T15:29:37.106Z,953.09
2019-04-26T15:32:05.313Z,953.07
2019-04-26T15:34:29.739Z,953.06
2019-04-26T15:36:56.042Z,953.08
2019-04-26T15:39:23.201Z,953.03
2019-04-26T15:41:51.233Z,953.01
2019-04-26T15:44:15.033Z,952.96
2019-04-26T15:46:42.563Z,952.96
2019-04-26T15:49:09.550Z,952.94
2019-04-26T15:51:33.992Z,952.96
2019-04-26T15:54:00.297Z,952.96
2019-04-26T15:56:26.626Z,952.95
2019-04-26T15:58:52.974Z,953.01
2019-04-26T16:01:19.288Z,953.02
2019-04-26T16:03:45.620Z,953.00
2019-04-26T16:06:12.649Z,952.95
2019-04-26T16:08:42.675Z,952.96
2019-04-26T16:11:07.213Z,952.94
2019-04-26T16:13:32.280Z,952.96
2019-04-26T16:15:57.239Z,952.88
2019-04-26T16:18:23.542Z,952.94
2019-04-26T16:20:49.875Z,952.87
2019-04-26T16:23:16.203Z,952.86
2019-04-26T16:25:42.899Z,952.78
2019-04-26T16:28:09.367Z,952.76
2019-04-26T16:30:37.515Z,952.78
2019-04-26T16:33:02.708Z,952.84
2019-04-26T16:35:28.290Z,952.87
2019-04-26T16:37:54.131Z,952.82
2019-04-26T16:40:20.451Z,952.78
2019-04-26T16:42:49.695Z,952.73
2019-04-26T16:45:13.098Z,952.75
2019-04-26T16:47:45.175Z,952.76
2019-04-26T16:50:05.756Z,952.89
2019-04-26T16:52:33.714Z,952.77
2019-04-26T16:55:02.799Z,952.80
2019-04-26T16:57:26.425Z,952.87
2019-04-26T16:59:57.578Z,953.02
2019-04-26T17:02:25.675Z,952.96
2019-04-26T17:04:45.310Z,952.91
2019-04-26T17:07:13.286Z,952.88
2019-04-26T17:09:57.046Z,953.00
2019-04-26T17:12:04.289Z,952.96
2019-04-26T17:14:33.767Z,952.98
2019-04-26T17:16:56.917Z,952.98
2019-04-26T17:19:23.245Z,953.05
2019-04-26T17:21:49.548Z,953.03
2019-04-26T17:24:15.880Z,953.01
2019-04-26T17:26:42.808Z,953.06
2019-04-26T17:29:08.561Z,953.10
2019-04-26T17:31:34.830Z,953.11
2019-04-26T17:34:01.146Z,953.19
2019-04-26T17:36:27.466Z,953.13
2019-04-26T17:38:53.768Z,953.14
2019-04-26T17:41:20.104Z,953.22
2019-04-26T17:43:48.258Z,953.19
2019-04-26T17:46:18.347Z,953.29
2019-04-26T17:48:44.865Z,953.27
2019-04-26T17:51:12.135Z,953.31
2019-04-26T17:53:34.360Z,953.42
2019-04-26T17:56:00.778Z,953.41
2019-04-26T17:58:30.989Z,953.44
2019-04-26T18:00:56.365Z,953.48
2019-04-26T18:03:21.337Z,953.45
2019-04-26T18:05:56.788Z,953.53
2019-04-26T18:08:33.200Z,953.53
2019-04-26T18:10:41.332Z,953.67
2019-04-26T18:13:04.959Z,953.60
2019-04-26T18:15:31.288Z,953.67
2019-04-26T18:17:57.588Z,953.70
2019-04-26T18:20:23.921Z,953.70
2019-04-26T18:22:50.224Z,953.74
2019-04-26T18:25:16.545Z,953.76
2019-04-26T18:27:43.506Z,953.82
2019-04-26T18:30:13.554Z,953.87
2019-04-26T18:32:41.987Z,953.86
2019-04-26T18:35:01.850Z,953.86
2019-04-26T18:37:28.168Z,953.89
2019-04-26T18:39:57.367Z,953.92
2019-04-26T18:42:20.811Z,953.87
2019-04-26T18:44:47.911Z,953.90
2019-04-26T18:47:14.784Z,953.95
2019-04-26T18:49:39.765Z,953.91
2019-04-26T18:52:08.805Z,953.95
2019-04-26T18:54:32.881Z,954.00
2019-04-26T18:56:58.775Z,954.00
2019-04-26T18:59:27.707Z,953.98
2019-04-26T19:01:51.406Z,954.03
2019-04-26T19:04:17.724Z,954.02
2019-04-26T19:06:44.084Z,954.05
2019-04-26T19:09:12.107Z,954.04
2019-04-26T19:11:36.656Z,954.02
2019-04-26T19:14:06.373Z,954.03
2019-04-26T19:16:29.285Z,954.01
2019-04-26T19:18:55.662Z,954.04
2019-04-26T19:21:21.985Z,954.09
2019-04-26T19:23:48.301Z,954.15
2019-04-26T19:26:15.190Z,954.01
2019-04-26T19:28:42.937Z,954.10
2019-04-26T19:31:07.258Z,954.00
2019-04-26T19:33:33.557Z,953.99
2019-04-26T19:35:59.894Z,954.08
2019-04-26T19:38:26.196Z,954.03
2019-04-26T19:40:52.586Z,954.09
2019-04-26T19:43:30.152Z,954.06
2019-04-26T19:45:47.007Z,954.05
2019-04-26T19:48:15.825Z,954.06
2019-04-26T19:50:42.333Z,953.99
2019-04-26T19:53:04.221Z,953.99
2019-04-26T19:55:31.864Z,953.97
2019-04-26T19:57:56.823Z,954.01
2019-04-26T20:00:23.158Z,954.00
2019-04-26T20:02:49.466Z,953.99
2019-04-26T20:05:17.334Z,953.94
2019-04-26T20:07:42.130Z,953.95
2019-04-26T20:10:08.432Z,953.92
2019-04-26T20:12:37.928Z,953.89
2019-04-26T20:15:02.305Z,953.88
2019-04-26T20:17:27.422Z,953.91
2019-04-26T20:19:54.459Z,953.84
2019-04-26T20:22:26.053Z,953.81
2019-04-26T20:24:48.547Z,953.80
2019-04-26T20:27:19.508Z,953.78
2019-04-26T20:29:40.836Z,953.76
2019-04-26T20:32:05.345Z,953.78
2019-04-26T20:34:32.142Z,953.82
2019-04-26T20:36:58.012Z,953.84
2019-04-26T20:39:24.317Z,953.88
2019-04-26T20:42:00.705Z,953.84
2019-04-26T20:44:16.977Z,953.89
2019-04-26T20:46:43.285Z,953.82
2019-04-26T20:49:11.235Z,953.84
2019-04-26T20:51:35.937Z,953.83
2019-04-26T20:54:03.905Z,953.85
2019-04-26T20:56:28.574Z,953.79
2019-04-26T20:58:57.453Z,953.82
2019-04-26T21:01:22.379Z,953.80
2019-04-26T21:03:47.526Z,953.84
2019-04-26T21:06:13.869Z,953.88
2019-04-26T21:08:42.101Z,953.79
2019-04-26T21:11:06.511Z,953.82
2019-04-26T21:13:32.846Z,953.86
2019-04-26T21:16:03.525Z,953.91
2019-04-26T21:18:25.483Z,953.94
2019-04-26T21:20:52.159Z,953.87
2019-04-26T21:23:18.112Z,953.88
2019-04-26T21:25:44.447Z,953.89
2019-04-26T21:28:11.584Z,953.93
2019-04-26T21:30:38.565Z,953.94
2019-04-26T21:33:03.419Z,953.92
2019-04-26T21:35:29.750Z,953.94
2019-04-26T21:37:56.555Z,953.90
2019-04-26T21:40:24.855Z,953.93
2019-04-26T21:42:48.725Z,953.93
2019-04-26T21:45:15.034Z,953.98
2019-04-26T21:47:43.371Z,953.93
2019-04-26T21:50:07.678Z,953.99
2019-04-26T21:52:34.352Z,953.93
2019-04-26T21:55:00.342Z,953.95
2019-04-26T21:57:28.255Z,953.92
2019-04-26T21:59:54.024Z,953.95
2019-04-26T22:02:19.310Z,953.98
2019-04-26T22:04:45.660Z,953.98
2019-04-26T22:07:11.963Z,954.02
2019-04-26T22:09:38.292Z,954.00
2019-04-26T22:12:04.601Z,954.05
2019-04-26T22:14:30.959Z,954.06
2019-04-26T22:16:57.671Z,954.03
2019-04-26T22:19:23.912Z,953.97
2019-04-26T22:21:49.933Z,953.99
2019-04-26T22:24:16.240Z,954.00
2019-04-26T22:26:47.682Z,953.99
2019-04-26T22:29:14.224Z,953.97
2019-04-26T22:31:37.990Z,953.95
2019-04-26T22:34:07.267Z,953.94
2019-04-26T22:36:30.799Z,953.96
2019-04-26T22:38:55.644Z,953.84
2019-04-26T22:41:20.536Z,953.89
2019-04-26T22:43:49.623Z,953.85
2019-04-26T22:46:14.117Z,953.85
2019-04-26T22:48:39.451Z,953.86
2019-04-26T22:51:05.789Z,953.83
2019-04-26T22:53:32.825Z,953.77
2019-04-26T22:56:01.343Z,953.76
2019-04-26T22:58:28.570Z,953.78
2019-04-26T23:00:51.069Z,953.76
2019-04-26T23:03:17.740Z,953.77
2019-04-26T23:05:44.014Z,953.74
2019-04-26T23:08:10.341Z,953.71
2019-04-26T23:13:13.240Z,953.77
2019-04-26T23:15:38.249Z,953.70
2019-04-26T23:18:08.216Z,953.61
2019-04-26T23:20:34.383Z,953.56
2019-04-26T23:23:00.422Z,953.63
2019-04-26T23:25:27.766Z,953.57
2019-04-26T23:27:54.413Z,953.57
2019-04-26T23:30:16.745Z,953.56
2019-04-26T23:32:43.474Z,953.49
2019-04-26T23:35:09.392Z,953.53
2019-04-26T23:37:35.724Z,953.48
2019-04-26T23:40:03.834Z,953.50
2019-04-26T23:42:28.352Z,953.48
2019-04-26T23:44:54.678Z,953.41
2019-04-26T23:47:23.235Z,953.45
2019-04-26T23:49:49.327Z,953.39
2019-04-26T23:52:14.481Z,953.39
2019-04-26T23:54:41.675Z,953.35
2019-04-26T23:57:08.404Z,953.29
2019-04-26T23:59:45.315Z,953.24
